Time;durP1;ratioP1;P1;durP2;ratioP2;P2;SDS_P1;SDS_P2;PMS_P1;PMS_P2;Temp;Humidity;BMP_temperature;BMP_pressure;BME280_temperature;BME280_humidity;BME280_pressure;Samples;Min_cycle;Max_cycle;Signal;HPM_P1;HPM_P2
2021/09/18 00:00:32;;;;;;;0.20;0.20;;;23.80;53.20;;;;;;6316851;28;20071;-73
2021/09/18 00:03:33;;;;;;;0.38;0.20;;;23.80;53.30;;;;;;6316736;28;20549;-72
2021/09/18 00:06:34;;;;;;;0.25;0.20;;;23.80;53.20;;;;;;6316812;28;20032;-73
2021/09/18 00:09:34;;;;;;;0.20;0.20;;;23.80;53.20;;;;;;6315917;28;20059;-72
2021/09/18 00:12:35;;;;;;;0.30;0.20;;;23.80;53.30;;;;;;6316828;28;20029;-72
2021/09/18 00:15:36;;;;;;;0.20;0.20;;;23.80;53.30;;;;;;6302853;28;20031;-72
2021/09/18 00:18:36;;;;;;;0.20;0.10;;;23.80;53.40;;;;;;6316691;28;20391;-72
2021/09/18 00:21:37;;;;;;;0.30;0.30;;;23.80;53.40;;;;;;6316056;28;20050;-73
2021/09/18 00:24:37;;;;;;;0.40;0.30;;;23.80;53.50;;;;;;6316706;28;20036;-72
2021/09/18 00:27:38;;;;;;;0.35;0.22;;;23.80;53.40;;;;;;6316254;28;20051;-72
2021/09/18 00:30:39;;;;;;;0.35;0.28;;;23.80;53.50;;;;;;6316444;28;20394;-72
2021/09/18 00:33:39;;;;;;;0.20;0.20;;;23.80;53.50;;;;;;6316340;28;20024;-72
2021/09/18 00:36:40;;;;;;;0.20;0.20;;;23.80;54.20;;;;;;6314780;28;20074;-72
2021/09/18 00:39:40;;;;;;;0.40;0.30;;;23.80;53.50;;;;;;6315639;28;20067;-72
2021/09/18 00:42:41;;;;;;;0.30;0.20;;;23.80;53.60;;;;;;6314809;28;20024;-72
2021/09/18 00:45:42;;;;;;;0.20;0.20;;;23.80;53.50;;;;;;6316454;28;20391;-73
2021/09/18 00:48:43;;;;;;;0.30;0.20;;;23.80;53.50;;;;;;6291011;28;20028;-72
2021/09/18 00:51:43;;;;;;;0.22;0.22;;;23.80;53.60;;;;;;6297720;28;20032;-72
2021/09/18 00:54:50;;;;;;;0.25;0.20;;;23.80;53.50;;;;;;6316024;28;20515;-72
2021/09/18 00:57:51;;;;;;;0.20;0.20;;;23.80;53.60;;;;;;6315897;28;20387;-72
2021/09/18 01:00:51;;;;;;;0.10;0.10;;;23.80;53.60;;;;;;6315020;28;20038;-73
2021/09/18 01:03:52;;;;;;;0.20;0.20;;;23.80;53.60;;;;;;6315777;28;20122;-72
2021/09/18 01:06:52;;;;;;;0.10;0.10;;;23.80;53.60;;;;;;6315414;28;20028;-73
2021/09/18 01:09:53;;;;;;;0.10;0.10;;;23.80;53.60;;;;;;6315091;28;20051;-72
2021/09/18 01:13:00;;;;;;;0.10;0.10;;;23.80;53.60;;;;;;6315474;28;20426;-72
2021/09/18 01:16:00;;;;;;;0.10;0.10;;;23.80;53.70;;;;;;6294394;28;20032;-72
2021/09/18 01:19:01;;;;;;;0.10;0.10;;;23.80;53.70;;;;;;6310763;28;20259;-73
2021/09/18 01:22:04;;;;;;;0.28;0.28;;;23.80;53.70;;;;;;6315594;28;20471;-72
2021/09/18 01:25:05;;;;;;;0.20;0.20;;;23.80;53.70;;;;;;6315514;28;20035;-72
2021/09/18 01:28:07;;;;;;;0.20;0.20;;;23.80;53.70;;;;;;6315095;28;20020;-73
2021/09/18 01:31:09;;;;;;;0.45;0.30;;;23.80;53.80;;;;;;6315357;28;20105;-72
2021/09/18 01:34:15;;;;;;;0.43;0.25;;;23.80;53.80;;;;;;6315234;28;20036;-72
2021/09/18 01:37:15;;;;;;;0.20;0.20;;;23.80;53.80;;;;;;6314830;28;20063;-72
2021/09/18 01:40:22;;;;;;;0.10;0.10;;;23.80;53.80;;;;;;6314817;28;20026;-72
2021/09/18 01:43:23;;;;;;;0.30;0.20;;;23.80;53.80;;;;;;6314955;28;20371;-72
2021/09/18 01:46:24;;;;;;;0.10;0.10;;;23.80;53.90;;;;;;6315702;28;20043;-72
2021/09/18 01:49:27;;;;;;;0.10;0.10;;;23.80;53.80;;;;;;6315126;28;20032;-72
2021/09/18 01:52:34;;;;;;;0.28;0.20;;;23.80;53.90;;;;;;6314661;28;20032;-72
2021/09/18 01:55:36;;;;;;;0.30;0.22;;;23.80;53.90;;;;;;6315163;28;20542;-73
2021/09/18 01:58:37;;;;;;;0.30;0.20;;;23.80;53.90;;;;;;6315062;28;20039;-73
2021/09/18 02:01:37;;;;;;;0.17;0.17;;;23.80;53.90;;;;;;6315200;28;20464;-72
2021/09/18 02:04:38;;;;;;;0.30;0.30;;;23.80;53.90;;;;;;6314610;28;20444;-73
2021/09/18 02:07:39;;;;;;;0.10;0.10;;;23.80;53.90;;;;;;6314809;28;20048;-71
2021/09/18 02:10:40;;;;;;;0.15;0.15;;;23.80;53.90;;;;;;6314986;28;20418;-72
2021/09/18 02:13:40;;;;;;;0.10;0.10;;;23.80;53.90;;;;;;6313042;28;20372;-72
2021/09/18 02:16:41;;;;;;;0.30;0.20;;;23.80;54.00;;;;;;6288336;28;20033;-72
2021/09/18 02:19:41;;;;;;;0.40;0.20;;;23.80;53.90;;;;;;6308221;28;20051;-73
2021/09/18 02:22:43;;;;;;;0.40;0.10;;;23.80;54.00;;;;;;6319182;28;20024;-72
2021/09/18 02:25:44;;;;;;;0.10;0.10;;;23.70;53.90;;;;;;6318887;28;20024;-72
2021/09/18 02:28:44;;;;;;;0.10;0.10;;;23.80;54.00;;;;;;6318673;28;20190;-72
2021/09/18 02:31:45;;;;;;;0.30;0.30;;;23.80;54.00;;;;;;6319012;28;20108;-72
2021/09/18 02:34:45;;;;;;;0.55;0.30;;;23.80;54.10;;;;;;6318613;28;20028;-72
2021/09/18 02:37:47;;;;;;;0.70;0.40;;;23.70;53.90;;;;;;6318665;28;20058;-72
2021/09/18 02:40:52;;;;;;;0.20;0.20;;;23.80;54.10;;;;;;6318440;28;20077;-72
2021/09/18 02:43:52;;;;;;;1.05;0.47;;;23.70;54.00;;;;;;6314003;28;20036;-72
2021/09/18 02:46:53;;;;;;;0.68;0.50;;;23.70;54.00;;;;;;6318643;28;20032;-72
2021/09/18 02:49:53;;;;;;;1.08;0.60;;;23.70;54.00;;;;;;6318100;28;20491;-72
2021/09/18 02:52:54;;;;;;;0.70;0.60;;;23.70;54.00;;;;;;6318804;28;20052;-72
2021/09/18 02:55:54;;;;;;;1.00;0.70;;;23.70;54.10;;;;;;6318254;28;20034;-72
2021/09/18 02:58:55;;;;;;;0.88;0.60;;;23.70;54.10;;;;;;6317642;28;20122;-72
2021/09/18 03:01:56;;;;;;;0.90;0.70;;;23.70;54.10;;;;;;6318493;28;20111;-73
2021/09/18 03:04:57;;;;;;;0.80;0.60;;;23.70;54.10;;;;;;6318136;28;20028;-72
2021/09/18 03:07:57;;;;;;;1.60;0.77;;;23.70;54.10;;;;;;6317871;28;20063;-72
2021/09/18 03:10:58;;;;;;;0.88;0.60;;;23.70;54.10;;;;;;6318154;28;20119;-72
2021/09/18 03:13:58;;;;;;;0.90;0.70;;;23.70;54.10;;;;;;6318524;28;20019;-72
2021/09/18 03:16:59;;;;;;;0.85;0.50;;;23.80;54.20;;;;;;6317665;28;20081;-72
2021/09/18 03:19:59;;;;;;;1.52;0.90;;;23.70;54.20;;;;;;6317246;28;20036;-72
2021/09/18 03:23:00;;;;;;;0.40;0.40;;;23.70;54.10;;;;;;6318357;28;20043;-72
2021/09/18 03:26:00;;;;;;;0.80;0.60;;;23.70;54.10;;;;;;6317796;28;20425;-72
2021/09/18 03:29:02;;;;;;;0.98;0.60;;;23.70;54.20;;;;;;6313254;28;20589;-72
2021/09/18 03:32:04;;;;;;;2.00;0.80;;;23.70;54.20;;;;;;6317397;28;20364;-71
2021/09/18 03:35:05;;;;;;;0.95;0.65;;;23.70;54.20;;;;;;6317703;28;20115;-72
2021/09/18 03:38:05;;;;;;;1.15;0.70;;;23.70;54.20;;;;;;6317062;28;20024;-72
2021/09/18 03:41:06;;;;;;;0.98;0.60;;;23.70;54.20;;;;;;6317193;28;20093;-72
2021/09/18 03:44:06;;;;;;;0.95;0.60;;;23.70;54.20;;;;;;6315926;28;20024;-73
2021/09/18 03:47:07;;;;;;;0.38;0.30;;;23.70;54.20;;;;;;6317196;28;20031;-72
2021/09/18 03:50:09;;;;;;;0.98;0.55;;;23.70;54.30;;;;;;6316505;28;20106;-72
2021/09/18 03:53:09;;;;;;;0.63;0.63;;;23.70;54.20;;;;;;6317174;28;20467;-72
2021/09/18 03:56:10;;;;;;;1.17;0.50;;;23.70;54.30;;;;;;6316897;28;20032;-72
2021/09/18 04:03:07;;;;;;;0.80;0.50;;;23.70;54.30;;;;;;6317302;28;20032;-73
2021/09/18 04:06:07;;;;;;;0.30;0.30;;;23.70;54.30;;;;;;6316600;28;20506;-72
2021/09/18 04:09:08;;;;;;;0.85;0.40;;;23.70;54.30;;;;;;6315969;28;20052;-72
2021/09/18 04:12:08;;;;;;;0.52;0.50;;;23.70;54.30;;;;;;6316682;28;20035;-72
2021/09/18 04:15:09;;;;;;;0.98;0.60;;;23.70;54.40;;;;;;6316667;28;20024;-72
2021/09/18 04:18:10;;;;;;;1.00;0.40;;;23.70;54.40;;;;;;6316126;28;20048;-72
2021/09/18 04:21:10;;;;;;;0.82;0.65;;;23.70;54.40;;;;;;6315974;28;20028;-72
2021/09/18 04:24:11;;;;;;;0.60;0.50;;;23.70;54.40;;;;;;6316370;28;20024;-72
2021/09/18 04:27:12;;;;;;;1.25;0.60;;;23.80;54.50;;;;;;6315822;28;20142;-72
2021/09/18 04:30:12;;;;;;;0.45;0.40;;;23.70;54.50;;;;;;6315877;28;20012;-72
2021/09/18 04:33:13;;;;;;;0.60;0.40;;;23.70;55.10;;;;;;6315610;28;20364;-72
2021/09/18 04:36:13;;;;;;;0.40;0.30;;;23.70;54.50;;;;;;6316480;28;20107;-72
2021/09/18 04:39:14;;;;;;;0.70;0.47;;;23.70;54.50;;;;;;6315966;28;20502;-72
2021/09/18 04:42:15;;;;;;;0.85;0.52;;;23.70;54.50;;;;;;6315583;28;20039;-72
2021/09/18 04:45:15;;;;;;;0.57;0.45;;;23.70;54.50;;;;;;6316214;28;20039;-72
2021/09/18 04:48:16;;;;;;;0.45;0.40;;;23.70;54.50;;;;;;6315788;28;20028;-72
2021/09/18 04:51:16;;;;;;;0.40;0.40;;;23.70;54.50;;;;;;6315693;28;20030;-72
2021/09/18 04:54:17;;;;;;;0.55;0.50;;;23.70;54.50;;;;;;6316164;28;20364;-71
2021/09/18 04:57:17;;;;;;;0.43;0.38;;;23.70;54.50;;;;;;6315799;28;20415;-72
2021/09/18 05:00:18;;;;;;;0.65;0.50;;;23.70;54.50;;;;;;6315499;28;20047;-73
2021/09/18 05:03:19;;;;;;;0.45;0.40;;;23.70;54.50;;;;;;6310394;28;20114;-72
2021/09/18 05:06:19;;;;;;;0.55;0.50;;;23.70;54.50;;;;;;6315452;28;20034;-72
2021/09/18 05:09:20;;;;;;;0.43;0.43;;;23.70;54.60;;;;;;6314778;28;20625;-71
2021/09/18 05:12:21;;;;;;;0.85;0.52;;;23.70;54.60;;;;;;6315516;28;20113;-72
2021/09/18 05:15:22;;;;;;;0.40;0.38;;;23.70;54.60;;;;;;6296143;28;20032;-72
2021/09/18 05:18:22;;;;;;;0.85;0.50;;;23.70;54.60;;;;;;6301324;28;20057;-73
2021/09/18 05:21:23;;;;;;;0.45;0.30;;;23.70;54.60;;;;;;6311299;28;20031;-72
2021/09/18 05:24:25;;;;;;;0.50;0.40;;;23.70;54.60;;;;;;6315356;28;20024;-72
2021/09/18 05:27:25;;;;;;;0.52;0.45;;;23.70;54.60;;;;;;6315143;28;20107;-72
2021/09/18 05:30:26;;;;;;;0.50;0.50;;;23.70;54.60;;;;;;6315142;28;20016;-71
2021/09/18 05:33:26;;;;;;;0.60;0.40;;;23.70;54.60;;;;;;6314914;28;20020;-72
2021/09/18 05:36:27;;;;;;;0.57;0.50;;;23.70;54.60;;;;;;6315388;28;20048;-72
2021/09/18 05:39:27;;;;;;;0.32;0.30;;;23.70;54.60;;;;;;6314738;28;20063;-72
2021/09/18 05:42:28;;;;;;;0.43;0.30;;;23.70;54.60;;;;;;6315659;28;20028;-72
2021/09/18 05:45:29;;;;;;;0.50;0.43;;;23.70;54.60;;;;;;6315149;28;20364;-72
2021/09/18 05:48:29;;;;;;;0.40;0.40;;;23.70;54.70;;;;;;6314924;28;20028;-71
2021/09/18 05:51:30;;;;;;;0.50;0.40;;;23.70;54.70;;;;;;6315331;28;20028;-72
2021/09/18 05:54:30;;;;;;;0.55;0.40;;;23.70;54.70;;;;;;6319975;28;20127;-72
2021/09/18 05:57:31;;;;;;;0.38;0.28;;;23.70;55.40;;;;;;6320326;28;20223;-72
2021/09/18 06:00:32;;;;;;;0.40;0.38;;;23.70;54.70;;;;;;6319629;28;20499;-72
2021/09/18 06:03:32;;;;;;;0.70;0.40;;;23.70;54.70;;;;;;6319287;28;20035;-72
2021/09/18 06:06:33;;;;;;;0.35;0.32;;;23.70;54.70;;;;;;6319960;28;20024;-72
2021/09/18 06:09:33;;;;;;;1.00;0.40;;;23.70;54.70;;;;;;6319120;28;20245;-72
2021/09/18 06:12:34;;;;;;;0.40;0.40;;;23.70;54.80;;;;;;6319713;28;20043;-72
2021/09/18 06:15:34;;;;;;;0.60;0.35;;;23.70;54.70;;;;;;6301784;28;20203;-72
2021/09/18 06:18:35;;;;;;;0.43;0.35;;;23.70;54.80;;;;;;6296879;28;20036;-72
2021/09/18 06:21:35;;;;;;;0.88;0.55;;;23.70;54.80;;;;;;6319252;28;20392;-72
2021/09/18 06:24:36;;;;;;;0.43;0.40;;;23.70;54.80;;;;;;6319122;28;20027;-73
2021/09/18 06:27:37;;;;;;;0.60;0.40;;;23.70;54.80;;;;;;6319419;28;20084;-72
2021/09/18 06:30:37;;;;;;;0.30;0.30;;;23.70;54.80;;;;;;6318802;28;20391;-72
2021/09/18 06:33:38;;;;;;;0.30;0.30;;;23.70;54.80;;;;;;6318952;28;20017;-72
2021/09/18 06:36:38;;;;;;;0.30;0.30;;;23.70;54.80;;;;;;6319090;28;20034;-72
2021/09/18 06:39:39;;;;;;;0.43;0.30;;;23.70;54.80;;;;;;6318972;28;20391;-72
2021/09/18 06:42:40;;;;;;;0.38;0.38;;;23.70;54.80;;;;;;6319055;28;20510;-72
2021/09/18 06:45:40;;;;;;;0.30;0.30;;;23.70;54.80;;;;;;6318518;28;20061;-72
2021/09/18 06:48:41;;;;;;;0.30;0.30;;;23.70;54.90;;;;;;6317376;28;20077;-72
2021/09/18 06:51:42;;;;;;;0.30;0.30;;;23.70;54.80;;;;;;6318146;28;20621;-73
2021/09/18 06:54:43;;;;;;;0.80;0.30;;;23.70;54.90;;;;;;6318818;28;20086;-72
2021/09/18 06:57:44;;;;;;;0.40;0.38;;;23.70;54.90;;;;;;6318694;28;20494;-72
2021/09/18 07:00:44;;;;;;;0.50;0.47;;;23.70;54.90;;;;;;6314469;28;20093;-72
2021/09/18 07:03:45;;;;;;;1.20;0.40;;;23.70;54.90;;;;;;6318208;28;20028;-73
2021/09/18 07:06:45;;;;;;;0.50;0.30;;;23.70;54.90;;;;;;6318043;28;20556;-72
2021/09/18 07:09:46;;;;;;;0.20;0.20;;;23.70;54.90;;;;;;6317460;28;20055;-72
2021/09/18 07:12:46;;;;;;;0.55;0.40;;;23.70;54.90;;;;;;6318090;28;20056;-72
2021/09/18 07:15:47;;;;;;;0.20;0.20;;;23.80;55.00;;;;;;6306716;28;20064;-72
2021/09/18 07:18:47;;;;;;;0.68;0.38;;;23.70;55.00;;;;;;6318104;28;20501;-72
2021/09/18 07:21:48;;;;;;;0.20;0.20;;;23.70;55.00;;;;;;6317768;28;20509;-72
2021/09/18 07:24:48;;;;;;;0.20;0.20;;;23.70;55.00;;;;;;6317912;28;20020;-72
2021/09/18 07:27:49;;;;;;;0.20;0.20;;;23.70;55.00;;;;;;6316161;28;20103;-72
2021/09/18 07:30:49;;;;;;;0.68;0.30;;;23.70;55.00;;;;;;6317726;28;20367;-72
2021/09/18 07:33:50;;;;;;;0.20;0.20;;;23.70;55.00;;;;;;6317874;28;20453;-72
2021/09/18 07:36:51;;;;;;;0.30;0.30;;;23.70;55.10;;;;;;6317998;28;20036;-72
2021/09/18 07:39:52;;;;;;;0.20;0.20;;;23.70;55.00;;;;;;6317046;28;20043;-72
2021/09/18 07:42:52;;;;;;;0.40;0.40;;;23.70;55.10;;;;;;6317324;28;20024;-72
2021/09/18 07:45:53;;;;;;;0.65;0.50;;;23.70;55.00;;;;;;6317109;28;20107;-72
2021/09/18 07:48:54;;;;;;;0.30;0.30;;;23.70;55.00;;;;;;6317340;28;20114;-72
2021/09/18 07:51:55;;;;;;;0.30;0.30;;;23.70;55.10;;;;;;6316885;28;20479;-72
2021/09/18 07:54:56;;;;;;;0.30;0.30;;;23.70;55.00;;;;;;6317162;28;20510;-73
2021/09/18 07:57:56;;;;;;;0.40;0.40;;;23.70;55.10;;;;;;6316985;28;20024;-72
2021/09/18 08:00:57;;;;;;;0.30;0.30;;;23.70;55.00;;;;;;6317319;28;20036;-72
2021/09/18 08:04:03;;;;;;;0.55;0.40;;;23.70;55.10;;;;;;6317662;28;20044;-72
2021/09/18 08:07:04;;;;;;;0.60;0.20;;;23.70;55.10;;;;;;6316694;28;20032;-73
2021/09/18 08:10:13;;;;;;;0.40;0.38;;;23.70;55.10;;;;;;6316178;28;20048;-72
2021/09/18 08:13:13;;;;;;;0.50;0.40;;;23.70;55.10;;;;;;6316589;28;20055;-72
2021/09/18 08:16:15;;;;;;;0.40;0.35;;;23.70;55.10;;;;;;6294495;28;20469;-73
2021/09/18 08:19:17;;;;;;;0.30;0.30;;;23.70;55.10;;;;;;6315468;28;20267;-73
2021/09/18 08:22:18;;;;;;;0.20;0.20;;;23.70;55.10;;;;;;6316270;28;20024;-72
2021/09/18 08:25:18;;;;;;;0.40;0.30;;;23.70;55.10;;;;;;6316117;28;20095;-72
2021/09/18 08:28:19;;;;;;;0.20;0.20;;;23.70;55.10;;;;;;6316405;28;20024;-72
2021/09/18 08:31:19;;;;;;;0.15;0.13;;;23.70;55.10;;;;;;6315668;28;20055;-72
2021/09/18 08:34:20;;;;;;;0.20;0.20;;;23.70;55.20;;;;;;6316536;28;20035;-72
2021/09/18 08:37:20;;;;;;;0.40;0.30;;;23.70;55.10;;;;;;6316168;28;20507;-72
2021/09/18 08:40:24;;;;;;;0.13;0.13;;;23.70;55.20;;;;;;6316373;28;20085;-72
2021/09/18 08:43:24;;;;;;;0.35;0.30;;;23.70;55.20;;;;;;6315630;28;20386;-72
2021/09/18 08:46:26;;;;;;;0.20;0.20;;;23.70;55.20;;;;;;6316298;28;20028;-72
2021/09/18 08:49:28;;;;;;;0.85;0.30;;;23.70;55.20;;;;;;6315358;28;20028;-72
2021/09/18 08:52:28;;;;;;;0.30;0.30;;;23.70;55.20;;;;;;6316135;28;20444;-72
2021/09/18 08:55:29;;;;;;;0.30;0.30;;;23.70;55.20;;;;;;6315778;28;20073;-71
2021/09/18 08:58:30;;;;;;;0.50;0.30;;;23.70;55.20;;;;;;6315736;28;20020;-72
2021/09/18 09:01:33;;;;;;;0.30;0.30;;;23.70;55.20;;;;;;6315711;28;20032;-72
2021/09/18 09:04:33;;;;;;;0.52;0.30;;;23.70;55.20;;;;;;6315537;28;20032;-72
2021/09/18 09:07:34;;;;;;;1.17;0.38;;;23.70;55.30;;;;;;6315510;28;20521;-71
2021/09/18 09:10:35;;;;;;;0.85;0.30;;;23.70;55.20;;;;;;6315410;28;20035;-71
2021/09/18 09:13:36;;;;;;;0.20;0.20;;;23.70;55.30;;;;;;6314709;28;20540;-71
2021/09/18 09:16:37;;;;;;;0.20;0.20;;;23.70;55.30;;;;;;6309390;28;20024;-71
2021/09/18 09:19:39;;;;;;;0.30;0.30;;;23.70;55.30;;;;;;6314895;28;20040;-71
2021/09/18 09:22:46;;;;;;;0.35;0.30;;;23.70;55.20;;;;;;6315576;28;20020;-72
2021/09/18 09:25:53;;;;;;;0.30;0.30;;;23.70;55.20;;;;;;6316096;28;20027;-71
2021/09/18 09:28:55;;;;;;;0.25;0.25;;;23.70;55.20;;;;;;6319925;28;20389;-72
2021/09/18 09:31:56;;;;;;;0.30;0.30;;;23.70;55.30;;;;;;6320688;28;20093;-72
2021/09/18 09:34:58;;;;;;;0.30;0.30;;;23.70;55.30;;;;;;6319329;28;20036;-72
2021/09/18 09:37:58;;;;;;;4.88;0.60;;;23.70;55.30;;;;;;6319023;28;20117;-71
2021/09/18 09:40:59;;;;;;;3.47;0.45;;;23.70;55.40;;;;;;6289025;28;20048;-71
2021/09/18 09:44:02;;;;;;;8.90;0.52;;;23.70;55.80;;;;;;6300132;28;20027;-71
2021/09/18 09:47:11;;;;;;;1.05;0.45;;;23.70;56.10;;;;;;6291106;28;20028;-72
2021/09/18 09:50:13;;;;;;;0.73;0.30;;;23.70;56.10;;;;;;6308807;28;20028;-71
2021/09/18 09:53:28;;;;;;;2.63;0.20;;;23.60;56.10;;;;;;6300301;28;20399;-72
2021/09/18 09:56:28;;;;;;;;;;;23.60;56.30;;;;;;6296596;28;20466;-72
2021/09/18 09:59:29;;;;;;;1.42;0.47;;;23.50;56.40;;;;;;6301214;28;19920;-71
2021/09/18 10:02:30;;;;;;;1.95;0.40;;;23.50;56.60;;;;;;6293098;28;20024;-71
2021/09/18 10:05:30;;;;;;;1.05;0.32;;;23.50;56.70;;;;;;6312669;28;20521;-72
2021/09/18 10:08:31;;;;;;;1.13;0.50;;;23.50;56.80;;;;;;6292168;28;20048;-72
2021/09/18 10:11:34;;;;;;;1.15;0.30;;;23.50;56.90;;;;;;6314442;28;20032;-72
2021/09/18 10:14:35;;;;;;;1.95;0.40;;;23.50;57.00;;;;;;6293880;28;20036;-72
2021/09/18 10:17:40;;;;;;;1.13;0.30;;;23.50;57.00;;;;;;6293967;28;20197;-72
2021/09/18 10:23:51;;;;;;;1.05;0.40;;;23.50;57.10;;;;;;6292636;28;20063;-72
2021/09/18 10:27:16;;;;;;;0.88;0.40;;;23.40;56.90;;;;;;6304809;28;20507;-72
2021/09/18 10:30:33;;;;;;;2.20;0.57;;;23.40;57.00;;;;;;6295477;28;20069;-72
2021/09/18 10:33:42;;;;;;;2.80;0.43;;;23.40;57.00;;;;;;6290148;28;20086;-72
2021/09/18 10:36:43;;;;;;;1.25;0.32;;;23.40;57.10;;;;;;6298132;28;20024;-72
2021/09/18 10:40:04;;;;;;;1.83;0.60;;;23.40;56.90;;;;;;6292070;28;20032;-72
2021/09/18 10:43:24;;;;;;;0.77;0.30;;;23.40;56.90;;;;;;6291947;28;20029;-72
2021/09/18 10:46:47;;;;;;;1.35;0.40;;;23.40;57.00;;;;;;6292299;28;20033;-72
2021/09/18 10:49:48;;;;;;;2.67;0.40;;;23.40;56.90;;;;;;6293899;28;20027;-72
2021/09/18 10:53:00;;;;;;;7.88;0.77;;;23.40;56.90;;;;;;6298445;28;20016;-72
2021/09/18 10:56:05;;;;;;;0.57;0.20;;;23.40;56.90;;;;;;6304987;28;20282;-72
2021/09/18 10:59:06;;;;;;;1.10;0.35;;;23.30;56.80;;;;;;6313608;28;20123;-71
2021/09/18 11:02:31;;;;;;;0.47;0.30;;;23.30;56.80;;;;;;6298836;28;20023;-71
2021/09/18 11:05:37;;;;;;;0.90;0.32;;;23.30;56.90;;;;;;6312276;28;20072;-72
2021/09/18 11:08:49;;;;;;;2.08;0.45;;;23.30;56.90;;;;;;6305166;28;20048;-71
2021/09/18 11:12:13;;;;;;;1.27;0.40;;;23.30;56.90;;;;;;6301932;28;20063;-71
2021/09/18 11:15:13;;;;;;;0.93;0.30;;;23.30;56.90;;;;;;6295217;28;20354;-72
2021/09/18 11:18:33;;;;;;;1.40;0.38;;;23.30;56.80;;;;;;6301150;28;20032;-72
2021/09/18 11:21:43;;;;;;;1.38;0.40;;;23.30;56.80;;;;;;6299425;28;20024;-71
2021/09/18 11:24:44;;;;;;;1.25;0.60;;;23.30;56.70;;;;;;6315940;28;20035;-72
2021/09/18 11:28:00;;;;;;;1.38;0.40;;;23.30;56.80;;;;;;6295299;28;20021;-71
2021/09/18 11:31:08;;;;;;;1.50;0.32;;;23.30;56.70;;;;;;6296758;28;20020;-71
2021/09/18 11:34:09;;;;;;;1.00;0.55;;;23.30;56.80;;;;;;6304465;28;20066;-71
2021/09/18 11:37:20;;;;;;;1.58;0.50;;;23.20;56.70;;;;;;6301802;28;20028;-71
2021/09/18 11:40:21;;;;;;;0.77;0.50;;;23.20;56.60;;;;;;6292808;28;20032;-72
2021/09/18 11:43:26;;;;;;;0.40;0.40;;;23.30;56.70;;;;;;6310066;28;20394;-71
2021/09/18 11:46:26;;;;;;;;;;;23.20;56.50;;;;;;6302002;28;20059;-72
2021/09/18 11:49:31;;;;;;;1.38;0.40;;;23.20;56.50;;;;;;6313738;28;19904;-72
2021/09/18 11:52:36;;;;;;;3.70;0.83;;;23.20;56.50;;;;;;6301460;28;20593;-71
2021/09/18 11:55:45;;;;;;;3.58;0.93;;;23.20;56.60;;;;;;6303790;28;20274;-71
2021/09/18 11:58:46;;;;;;;3.30;1.30;;;23.20;56.60;;;;;;6314069;28;20069;-71
2021/09/18 12:01:47;;;;;;;2.50;1.00;;;23.20;56.50;;;;;;6312986;28;20023;-72
2021/09/18 12:04:48;;;;;;;3.72;0.65;;;23.20;56.50;;;;;;6310782;28;20383;-72
2021/09/18 12:07:49;;;;;;;1.40;0.70;;;23.20;56.50;;;;;;6288677;28;20044;-72
2021/09/18 12:10:52;;;;;;;3.67;0.90;;;23.20;56.50;;;;;;6311675;28;20024;-72
2021/09/18 12:13:55;;;;;;;5.63;1.00;;;23.20;56.40;;;;;;6310054;28;20024;-71
2021/09/18 12:16:56;;;;;;;3.33;0.95;;;23.20;56.40;;;;;;6290559;28;20032;-71
2021/09/18 12:19:56;;;;;;;5.03;1.05;;;23.20;56.40;;;;;;6288731;28;20479;-71
2021/09/18 12:22:57;;;;;;;5.13;1.00;;;23.20;56.50;;;;;;6303897;28;20024;-72
2021/09/18 12:26:03;;;;;;;2.83;1.17;;;23.10;56.40;;;;;;6289306;28;20119;-72
2021/09/18 12:29:05;;;;;;;1.45;0.80;;;23.10;56.40;;;;;;6308269;28;20027;-72
2021/09/18 12:32:06;;;;;;;3.20;0.77;;;23.10;56.40;;;;;;6307224;28;20028;-71
2021/09/18 12:35:10;;;;;;;3.65;1.10;;;23.10;57.00;;;;;;6296130;28;20036;-72
2021/09/18 12:38:13;;;;;;;1.88;1.13;;;23.10;56.30;;;;;;6299317;28;20039;-71
2021/09/18 12:41:16;;;;;;;6.28;1.70;;;23.10;56.90;;;;;;6294146;28;20043;-71
2021/09/18 12:44:19;;;;;;;2.72;1.40;;;23.20;56.20;;;;;;6297251;28;20068;-71
2021/09/18 12:47:24;;;;;;;5.13;2.00;;;23.20;56.00;;;;;;6290388;28;20039;-72
2021/09/18 12:50:24;;;;;;;8.65;2.15;;;23.20;56.00;;;;;;6313390;28;20073;-71
2021/09/18 12:53:33;;;;;;;6.47;2.22;;;23.20;56.00;;;;;;6302832;28;20020;-71
2021/09/18 12:56:36;;;;;;;4.78;2.20;;;23.20;56.00;;;;;;6289327;28;20123;-71
2021/09/18 12:59:44;;;;;;;5.18;2.40;;;23.20;56.00;;;;;;6307314;28;20211;-72
2021/09/18 13:02:44;;;;;;;3.55;2.35;;;23.30;56.00;;;;;;6313821;28;20032;-71
2021/09/18 13:06:14;;;;;;;2.95;2.10;;;23.20;56.00;;;;;;6336586;28;20054;-72
2021/09/18 13:09:20;;;;;;;6.40;2.60;;;23.20;56.00;;;;;;6291985;28;20043;-72
2021/09/18 13:12:21;;;;;;;4.15;2.05;;;23.30;56.10;;;;;;6287634;28;20037;-72
2021/09/18 13:15:21;;;;;;;5.07;2.63;;;23.30;56.00;;;;;;6293083;28;20121;-72
2021/09/18 13:18:22;;;;;;;3.42;2.30;;;23.30;56.10;;;;;;6289901;28;20035;-72
2021/09/18 13:21:22;;;;;;;5.35;2.78;;;23.30;56.30;;;;;;6288013;28;20039;-72
2021/09/18 13:24:23;;;;;;;4.50;3.08;;;23.20;56.30;;;;;;6298706;28;20020;-72
2021/09/18 13:27:25;;;;;;;6.05;4.70;;;23.20;56.10;;;;;;6289522;28;20033;-71
2021/09/18 13:30:26;;;;;;;6.05;4.60;;;23.20;55.80;;;;;;6289525;28;20104;-72
2021/09/18 13:33:26;;;;;;;7.03;5.22;;;23.20;55.70;;;;;;6289017;28;20036;-71
2021/09/18 13:36:27;;;;;;;10.13;5.50;;;23.10;55.40;;;;;;6287480;28;20522;-71
2021/09/18 13:39:28;;;;;;;6.07;4.78;;;23.10;55.30;;;;;;6296072;28;20039;-71
2021/09/18 13:42:29;;;;;;;5.40;4.50;;;23.10;55.30;;;;;;6292521;28;20024;-72
2021/09/18 13:45:29;;;;;;;7.30;5.40;;;23.10;55.30;;;;;;6297076;28;20832;-72
2021/09/18 13:48:30;;;;;;;8.80;5.30;;;23.10;55.30;;;;;;6300229;28;20113;-72
2021/09/18 13:51:31;;;;;;;6.15;5.30;;;23.10;55.10;;;;;;6297881;28;20060;-72
2021/09/18 13:54:32;;;;;;;7.60;5.53;;;23.10;55.10;;;;;;6303348;28;20096;-72
2021/09/18 13:57:32;;;;;;;9.73;4.60;;;23.10;55.00;;;;;;6286846;28;20028;-72
2021/09/18 14:00:33;;;;;;;12.20;5.45;;;23.10;55.00;;;;;;6302147;28;20036;-72
2021/09/18 14:03:34;;;;;;;5.80;4.78;;;23.10;55.00;;;;;;6291637;28;20028;-72
2021/09/18 14:06:35;;;;;;;6.93;4.43;;;23.10;54.90;;;;;;6306899;28;20066;-71
2021/09/18 14:09:36;;;;;;;7.65;5.00;;;23.10;54.90;;;;;;6289853;28;20063;-72
2021/09/18 14:12:37;;;;;;;10.57;4.50;;;23.00;54.60;;;;;;6294294;28;20554;-72
2021/09/18 14:15:37;;;;;;;13.45;4.55;;;23.00;54.80;;;;;;6304468;28;20039;-72
2021/09/18 14:18:39;;;;;;;10.52;4.63;;;23.00;54.70;;;;;;6297697;28;20040;-72
2021/09/18 14:21:42;;;;;;;5.95;3.92;;;23.10;55.10;;;;;;6296574;28;20271;-72
2021/09/18 14:24:42;;;;;;;8.75;4.30;;;23.10;54.90;;;;;;6296076;28;20039;-71
2021/09/18 14:27:43;;;;;;;9.88;3.80;;;23.10;54.80;;;;;;6293326;28;20033;-72
2021/09/18 14:30:43;;;;;;;14.02;4.00;;;23.10;54.70;;;;;;6292394;28;20035;-71
2021/09/18 14:33:44;;;;;;;6.70;3.47;;;23.10;54.60;;;;;;6302831;28;20028;-72
2021/09/18 14:36:44;;;;;;;6.75;3.25;;;23.00;54.70;;;;;;6294409;28;20379;-72
2021/09/18 14:39:45;;;;;;;8.80;3.70;;;23.00;54.70;;;;;;6292741;28;20032;-71
2021/09/18 14:42:45;;;;;;;9.20;3.50;;;23.10;54.90;;;;;;6294542;28;20419;-71
2021/09/18 14:45:46;;;;;;;5.82;3.50;;;23.10;55.00;;;;;;6297214;28;20032;-71
2021/09/18 14:48:47;;;;;;;5.40;3.05;;;23.10;54.90;;;;;;6291801;28;20031;-71
2021/09/18 14:51:47;;;;;;;7.18;3.17;;;23.10;55.00;;;;;;6297273;28;20086;-72
2021/09/18 14:54:48;;;;;;;4.18;2.70;;;23.10;54.90;;;;;;6298845;28;20395;-71
2021/09/18 14:57:49;;;;;;;5.60;2.88;;;23.20;55.00;;;;;;6311086;28;20111;-72
2021/09/18 15:00:50;;;;;;;7.43;3.22;;;23.10;55.00;;;;;;6291885;28;20495;-72
2021/09/18 15:03:50;;;;;;;5.53;2.92;;;23.10;55.10;;;;;;6290994;28;20016;-72
2021/09/18 15:06:51;;;;;;;5.82;2.67;;;23.20;55.10;;;;;;6328062;28;20361;-72
2021/09/18 15:09:51;;;;;;;6.00;3.20;;;23.20;55.10;;;;;;6288552;28;20337;-71
2021/09/18 15:12:52;;;;;;;4.68;2.70;;;23.20;55.20;;;;;;6299769;28;20028;-72
2021/09/18 15:15:52;;;;;;;7.03;2.90;;;23.20;55.10;;;;;;6293536;28;20073;-72
2021/09/18 15:18:53;;;;;;;8.40;2.60;;;23.20;55.20;;;;;;6296623;28;20169;-71
2021/09/18 15:21:53;;;;;;;3.30;2.20;;;23.20;55.20;;;;;;6298764;28;20327;-71
2021/09/18 15:24:54;;;;;;;3.47;2.10;;;23.20;55.30;;;;;;6288672;28;20051;-72
2021/09/18 15:27:54;;;;;;;3.55;2.50;;;23.20;55.20;;;;;;6298884;28;20113;-72
2021/09/18 15:30:56;;;;;;;7.60;2.40;;;23.20;55.20;;;;;;6291009;28;20040;-72
2021/09/18 15:33:56;;;;;;;3.55;2.08;;;23.20;55.60;;;;;;6297808;28;20066;-72
2021/09/18 15:36:57;;;;;;;3.88;2.38;;;23.30;55.60;;;;;;6297596;28;20028;-71
2021/09/18 15:39:57;;;;;;;4.72;2.13;;;23.20;55.30;;;;;;6289491;28;20055;-72
2021/09/18 15:42:58;;;;;;;3.35;2.15;;;23.30;55.40;;;;;;6306834;28;20040;-72
2021/09/18 15:45:58;;;;;;;3.15;2.08;;;23.30;55.50;;;;;;6308803;28;20027;-72
2021/09/18 15:48:59;;;;;;;3.15;1.98;;;23.30;55.50;;;;;;6294382;28;20484;-72
2021/09/18 15:51:59;;;;;;;4.68;2.30;;;23.20;55.40;;;;;;6297129;28;20028;-72
2021/09/18 15:55:00;;;;;;;3.10;2.15;;;23.20;55.40;;;;;;6305479;28;20100;-72